sensor_id;sensor_type;location;lat;lon;timestamp;temperature;humidity
3156;DHT22;1588;50.892;7.082;2023-06-01T00:02:15;15.40;99.90
3156;DHT22;1588;50.892;7.082;2023-06-01T00:07:17;15.30;99.90
3156;DHT22;1588;50.892;7.082;2023-06-01T00:12:20;15.20;99.90
3156;DHT22;1588;50.892;7.082;2023-06-01T00:17:24;15.20;99.90
3156;DHT22;1588;50.892;7.082;2023-06-01T00:22:26;15.10;99.90
3156;DHT22;1588;50.892;7.082;2023-06-01T00:27:29;15.00;99.90
3156;DHT22;1588;50.892;7.082;2023-06-01T00:32:33;14.80;99.90
3156;DHT22;1588;50.892;7.082;2023-06-01T00:37:35;14.70;99.90
3156;DHT22;1588;50.892;7.082;2023-06-01T00:42:38;14.50;99.90
3156;DHT22;1588;50.892;7.082;2023-06-01T00:47:43;14.50;99.90
3156;DHT22;1588;50.892;7.082;2023-06-01T00:52:46;14.40;99.90
3156;DHT22;1588;50.892;7.082;2023-06-01T00:57:51;14.20;99.90
3156;DHT22;1588;50.892;7.082;2023-06-01T01:03:01;14.10;99.90
3156;DHT22;1588;50.892;7.082;2023-06-01T01:08:13;13.90;99.90
3156;DHT22;1588;50.892;7.082;2023-06-01T01:13:23;13.80;99.90
3156;DHT22;1588;50.892;7.082;2023-06-01T01:18:35;13.70;99.90
3156;DHT22;1588;50.892;7.082;2023-06-01T01:24:01;13.60;99.90
3156;DHT22;1588;50.892;7.082;2023-06-01T01:29:09;13.50;99.90
3156;DHT22;1588;50.892;7.082;2023-06-01T01:34:20;13.40;99.90
3156;DHT22;1588;50.892;7.082;2023-06-01T01:39:23;13.20;99.90
3156;DHT22;1588;50.892;7.082;2023-06-01T01:44:26;13.10;99.90
3156;DHT22;1588;50.892;7.082;2023-06-01T01:49:34;13.20;99.90
3156;DHT22;1588;50.892;7.082;2023-06-01T01:54:41;13.10;99.90
3156;DHT22;1588;50.892;7.082;2023-06-01T01:59:46;13.00;99.90
3156;DHT22;1588;50.892;7.082;2023-06-01T02:04:48;12.90;99.90
3156;DHT22;1588;50.892;7.082;2023-06-01T02:09:51;12.80;99.90
3156;DHT22;1588;50.892;7.082;2023-06-01T02:14:54;12.70;99.90
3156;DHT22;1588;50.892;7.082;2023-06-01T02:19:56;12.70;99.90
3156;DHT22;1588;50.892;7.082;2023-06-01T02:24:59;12.50;99.90
3156;DHT22;1588;50.892;7.082;2023-06-01T02:30:03;12.40;99.90
3156;DHT22;1588;50.892;7.082;2023-06-01T02:35:07;12.30;99.90
3156;DHT22;1588;50.892;7.082;2023-06-01T02:40:10;12.20;99.90
3156;DHT22;1588;50.892;7.082;2023-06-01T02:45:14;12.00;99.90
3156;DHT22;1588;50.892;7.082;2023-06-01T02:50:16;12.00;99.90
3156;DHT22;1588;50.892;7.082;2023-06-01T02:55:19;12.00;99.90
3156;DHT22;1588;50.892;7.082;2023-06-01T03:00:22;11.80;99.90
3156;DHT22;1588;50.892;7.082;2023-06-01T03:05:24;11.80;99.90
3156;DHT22;1588;50.892;7.082;2023-06-01T03:10:30;11.80;99.90
3156;DHT22;1588;50.892;7.082;2023-06-01T03:15:35;11.70;99.90
3156;DHT22;1588;50.892;7.082;2023-06-01T03:20:38;11.90;99.90
3156;DHT22;1588;50.892;7.082;2023-06-01T03:25:40;11.90;99.90
3156;DHT22;1588;50.892;7.082;2023-06-01T03:30:47;11.90;99.90
3156;DHT22;1588;50.892;7.082;2023-06-01T03:35:49;11.80;99.90
3156;DHT22;1588;50.892;7.082;2023-06-01T03:40:51;11.80;99.90
3156;DHT22;1588;50.892;7.082;2023-06-01T03:45:56;11.70;99.90
3156;DHT22;1588;50.892;7.082;2023-06-01T03:50:58;11.70;99.90
3156;DHT22;1588;50.892;7.082;2023-06-01T03:56:01;11.60;99.90
3156;DHT22;1588;50.892;7.082;2023-06-01T04:01:05;11.60;99.90
3156;DHT22;1588;50.892;7.082;2023-06-01T04:06:07;11.60;99.90
3156;DHT22;1588;50.892;7.082;2023-06-01T04:11:15;11.70;99.90
3156;DHT22;1588;50.892;7.082;2023-06-01T04:16:19;11.70;99.90
3156;DHT22;1588;50.892;7.082;2023-06-01T04:21:21;11.80;99.90
3156;DHT22;1588;50.892;7.082;2023-06-01T04:26:24;12.10;99.90
3156;DHT22;1588;50.892;7.082;2023-06-01T04:31:29;12.30;99.90
3156;DHT22;1588;50.892;7.082;2023-06-01T04:36:34;12.50;99.90
3156;DHT22;1588;50.892;7.082;2023-06-01T04:41:39;12.70;99.90
3156;DHT22;1588;50.892;7.082;2023-06-01T04:46:43;12.90;99.90
3156;DHT22;1588;50.892;7.082;2023-06-01T04:51:47;13.20;99.90
3156;DHT22;1588;50.892;7.082;2023-06-01T04:56:52;13.40;99.90
3156;DHT22;1588;50.892;7.082;2023-06-01T05:01:55;13.60;99.90
3156;DHT22;1588;50.892;7.082;2023-06-01T05:06:58;13.90;99.90
3156;DHT22;1588;50.892;7.082;2023-06-01T05:12:00;14.10;99.90
3156;DHT22;1588;50.892;7.082;2023-06-01T05:17:04;14.30;99.90
3156;DHT22;1588;50.892;7.082;2023-06-01T05:22:07;14.60;99.90
3156;DHT22;1588;50.892;7.082;2023-06-01T05:27:09;14.70;99.90
3156;DHT22;1588;50.892;7.082;2023-06-01T05:32:13;14.90;99.90
3156;DHT22;1588;50.892;7.082;2023-06-01T05:37:15;15.10;99.90
3156;DHT22;1588;50.892;7.082;2023-06-01T05:42:18;15.30;99.90
3156;DHT22;1588;50.892;7.082;2023-06-01T05:47:21;15.60;99.90
3156;DHT22;1588;50.892;7.082;2023-06-01T05:52:24;15.80;99.90
3156;DHT22;1588;50.892;7.082;2023-06-01T05:57:26;16.00;99.90
3156;DHT22;1588;50.892;7.082;2023-06-01T06:02:30;16.20;99.90
3156;DHT22;1588;50.892;7.082;2023-06-01T06:07:32;16.60;99.90
3156;DHT22;1588;50.892;7.082;2023-06-01T06:12:35;16.90;99.90
3156;DHT22;1588;50.892;7.082;2023-06-01T06:17:38;17.20;99.90
3156;DHT22;1588;50.892;7.082;2023-06-01T06:22:41;17.40;99.90
3156;DHT22;1588;50.892;7.082;2023-06-01T06:27:43;17.70;99.90
3156;DHT22;1588;50.892;7.082;2023-06-01T06:32:47;18.10;99.90
3156;DHT22;1588;50.892;7.082;2023-06-01T06:37:50;18.50;99.90
3156;DHT22;1588;50.892;7.082;2023-06-01T06:42:52;18.70;99.90
3156;DHT22;1588;50.892;7.082;2023-06-01T06:47:56;19.00;99.90
3156;DHT22;1588;50.892;7.082;2023-06-01T06:52:58;19.20;99.90
3156;DHT22;1588;50.892;7.082;2023-06-01T06:58:02;19.30;99.90
3156;DHT22;1588;50.892;7.082;2023-06-01T07:03:06;19.40;99.90
3156;DHT22;1588;50.892;7.082;2023-06-01T07:08:09;19.60;99.90
3156;DHT22;1588;50.892;7.082;2023-06-01T07:13:12;19.70;99.90
3156;DHT22;1588;50.892;7.082;2023-06-01T07:18:16;19.60;99.90
3156;DHT22;1588;50.892;7.082;2023-06-01T07:23:19;19.80;99.90
3156;DHT22;1588;50.892;7.082;2023-06-01T07:28:21;20.30;99.90
3156;DHT22;1588;50.892;7.082;2023-06-01T07:33:29;20.70;99.90
3156;DHT22;1588;50.892;7.082;2023-06-01T07:38:31;20.70;99.90
3156;DHT22;1588;50.892;7.082;2023-06-01T07:43:35;21.10;99.90
3156;DHT22;1588;50.892;7.082;2023-06-01T07:48:39;21.00;99.90
3156;DHT22;1588;50.892;7.082;2023-06-01T07:53:41;21.50;99.90
3156;DHT22;1588;50.892;7.082;2023-06-01T07:58:44;21.90;99.90
3156;DHT22;1588;50.892;7.082;2023-06-01T08:03:47;22.50;99.90
3156;DHT22;1588;50.892;7.082;2023-06-01T08:08:50;22.60;99.90
3156;DHT22;1588;50.892;7.082;2023-06-01T08:13:53;22.60;99.90
3156;DHT22;1588;50.892;7.082;2023-06-01T08:18:56;22.30;99.90
3156;DHT22;1588;50.892;7.082;2023-06-01T08:23:59;22.50;99.90
3156;DHT22;1588;50.892;7.082;2023-06-01T08:29:02;22.40;99.90
3156;DHT22;1588;50.892;7.082;2023-06-01T08:34:06;22.60;99.90
3156;DHT22;1588;50.892;7.082;2023-06-01T08:39:21;22.40;99.90
3156;DHT22;1588;50.892;7.082;2023-06-01T08:44:26;22.70;99.90
3156;DHT22;1588;50.892;7.082;2023-06-01T08:49:31;23.10;99.90
3156;DHT22;1588;50.892;7.082;2023-06-01T08:54:33;23.00;99.90
3156;DHT22;1588;50.892;7.082;2023-06-01T08:59:36;22.90;99.90
3156;DHT22;1588;50.892;7.082;2023-06-01T09:04:41;23.40;99.90
3156;DHT22;1588;50.892;7.082;2023-06-01T09:09:45;23.30;99.90
3156;DHT22;1588;50.892;7.082;2023-06-01T09:14:48;23.20;99.90
3156;DHT22;1588;50.892;7.082;2023-06-01T09:19:54;23.30;99.90
3156;DHT22;1588;50.892;7.082;2023-06-01T09:24:58;23.00;99.90
3156;DHT22;1588;50.892;7.082;2023-06-01T09:30:00;23.20;99.90
3156;DHT22;1588;50.892;7.082;2023-06-01T09:35:05;23.50;99.90
3156;DHT22;1588;50.892;7.082;2023-06-01T09:40:18;23.40;99.90
3156;DHT22;1588;50.892;7.082;2023-06-01T09:45:22;23.60;99.90
3156;DHT22;1588;50.892;7.082;2023-06-01T09:50:36;23.50;99.90
3156;DHT22;1588;50.892;7.082;2023-06-01T09:56:06;24.00;99.90
3156;DHT22;1588;50.892;7.082;2023-06-01T10:01:08;23.80;99.90
3156;DHT22;1588;50.892;7.082;2023-06-01T10:06:13;24.40;99.90
3156;DHT22;1588;50.892;7.082;2023-06-01T10:11:16;24.60;99.90
3156;DHT22;1588;50.892;7.082;2023-06-01T10:16:19;24.40;99.90
3156;DHT22;1588;50.892;7.082;2023-06-01T10:21:26;24.30;99.90
3156;DHT22;1588;50.892;7.082;2023-06-01T10:26:38;24.30;99.90
3156;DHT22;1588;50.892;7.082;2023-06-01T10:31:42;24.30;99.90
3156;DHT22;1588;50.892;7.082;2023-06-01T10:42:48;25.00;99.90
3156;DHT22;1588;50.892;7.082;2023-06-01T10:47:51;24.80;99.90
3156;DHT22;1588;50.892;7.082;2023-06-01T10:52:54;24.70;99.90
3156;DHT22;1588;50.892;7.082;2023-06-01T10:58:31;24.50;99.90
3156;DHT22;1588;50.892;7.082;2023-06-01T11:03:44;24.70;99.90
3156;DHT22;1588;50.892;7.082;2023-06-01T11:08:51;25.10;99.90
3156;DHT22;1588;50.892;7.082;2023-06-01T11:14:11;24.80;99.90
3156;DHT22;1588;50.892;7.082;2023-06-01T11:19:17;24.80;99.90
3156;DHT22;1588;50.892;7.082;2023-06-01T11:24:22;25.00;99.90
3156;DHT22;1588;50.892;7.082;2023-06-01T11:29:27;24.90;99.90
3156;DHT22;1588;50.892;7.082;2023-06-01T11:34:34;25.00;99.90
3156;DHT22;1588;50.892;7.082;2023-06-01T11:39:39;25.40;99.90
3156;DHT22;1588;50.892;7.082;2023-06-01T11:44:44;25.50;99.90
3156;DHT22;1588;50.892;7.082;2023-06-01T11:49:52;25.80;99.90
3156;DHT22;1588;50.892;7.082;2023-06-01T11:55:02;26.00;99.90
3156;DHT22;1588;50.892;7.082;2023-06-01T12:00:10;26.20;99.90
3156;DHT22;1588;50.892;7.082;2023-06-01T12:05:17;26.00;99.30
3156;DHT22;1588;50.892;7.082;2023-06-01T12:10:20;25.60;99.90
3156;DHT22;1588;50.892;7.082;2023-06-01T12:15:24;25.80;99.90
3156;DHT22;1588;50.892;7.082;2023-06-01T12:20:28;26.30;99.20
3156;DHT22;1588;50.892;7.082;2023-06-01T12:25:30;26.30;99.60
3156;DHT22;1588;50.892;7.082;2023-06-01T12:30:35;26.20;98.70
3156;DHT22;1588;50.892;7.082;2023-06-01T12:35:48;26.10;98.30
3156;DHT22;1588;50.892;7.082;2023-06-01T12:41:06;26.10;98.90
3156;DHT22;1588;50.892;7.082;2023-06-01T12:46:19;26.00;97.50
3156;DHT22;1588;50.892;7.082;2023-06-01T12:51:22;26.10;98.80
3156;DHT22;1588;50.892;7.082;2023-06-01T12:56:24;25.70;96.50
3156;DHT22;1588;50.892;7.082;2023-06-01T13:01:28;25.90;97.20
3156;DHT22;1588;50.892;7.082;2023-06-01T13:06:31;26.20;97.70
3156;DHT22;1588;50.892;7.082;2023-06-01T13:11:33;26.00;96.20
3156;DHT22;1588;50.892;7.082;2023-06-01T13:16:36;25.90;97.40
3156;DHT22;1588;50.892;7.082;2023-06-01T13:21:39;26.00;98.50
3156;DHT22;1588;50.892;7.082;2023-06-01T13:26:41;26.00;98.30
3156;DHT22;1588;50.892;7.082;2023-06-01T13:31:45;25.80;97.40
3156;DHT22;1588;50.892;7.082;2023-06-01T13:36:48;26.00;97.80
3156;DHT22;1588;50.892;7.082;2023-06-01T13:41:50;26.00;96.50
3156;DHT22;1588;50.892;7.082;2023-06-01T13:46:56;25.50;97.00
3156;DHT22;1588;50.892;7.082;2023-06-01T13:51:59;25.60;97.10
3156;DHT22;1588;50.892;7.082;2023-06-01T13:57:01;25.70;96.90
3156;DHT22;1588;50.892;7.082;2023-06-01T14:02:07;25.50;96.40
3156;DHT22;1588;50.892;7.082;2023-06-01T14:07:09;25.60;97.40
3156;DHT22;1588;50.892;7.082;2023-06-01T14:12:15;25.40;96.70
3156;DHT22;1588;50.892;7.082;2023-06-01T14:17:19;25.10;97.30
3156;DHT22;1588;50.892;7.082;2023-06-01T14:22:21;25.20;96.50
3156;DHT22;1588;50.892;7.082;2023-06-01T14:27:23;25.00;96.80
3156;DHT22;1588;50.892;7.082;2023-06-01T14:32:27;25.00;96.50
3156;DHT22;1588;50.892;7.082;2023-06-01T14:37:29;25.20;96.90
3156;DHT22;1588;50.892;7.082;2023-06-01T14:42:32;25.10;96.10
3156;DHT22;1588;50.892;7.082;2023-06-01T14:47:35;25.30;96.40
3156;DHT22;1588;50.892;7.082;2023-06-01T14:52:38;25.00;98.00
3156;DHT22;1588;50.892;7.082;2023-06-01T14:57:40;25.40;97.20
3156;DHT22;1588;50.892;7.082;2023-06-01T15:02:45;25.50;98.30
3156;DHT22;1588;50.892;7.082;2023-06-01T15:07:47;25.00;98.90
3156;DHT22;1588;50.892;7.082;2023-06-01T15:12:50;24.90;98.20
3156;DHT22;1588;50.892;7.082;2023-06-01T15:17:54;24.70;98.90
3156;DHT22;1588;50.892;7.082;2023-06-01T15:22:56;24.90;99.60
3156;DHT22;1588;50.892;7.082;2023-06-01T15:27:58;25.00;98.90
3156;DHT22;1588;50.892;7.082;2023-06-01T15:33:03;25.10;97.80
3156;DHT22;1588;50.892;7.082;2023-06-01T15:38:05;24.90;99.00
3156;DHT22;1588;50.892;7.082;2023-06-01T15:43:07;24.60;98.50
3156;DHT22;1588;50.892;7.082;2023-06-01T15:48:11;24.60;97.70
3156;DHT22;1588;50.892;7.082;2023-06-01T15:53:13;24.60;99.50
3156;DHT22;1588;50.892;7.082;2023-06-01T15:58:15;24.90;98.50
3156;DHT22;1588;50.892;7.082;2023-06-01T16:03:19;24.50;97.70
3156;DHT22;1588;50.892;7.082;2023-06-01T16:08:22;24.60;98.70
3156;DHT22;1588;50.892;7.082;2023-06-01T16:13:24;24.50;97.00
3156;DHT22;1588;50.892;7.082;2023-06-01T16:18:28;24.30;98.40
3156;DHT22;1588;50.892;7.082;2023-06-01T16:23:30;23.70;99.00
3156;DHT22;1588;50.892;7.082;2023-06-01T16:28:32;23.50;97.90
3156;DHT22;1588;50.892;7.082;2023-06-01T16:33:37;23.20;99.80
3156;DHT22;1588;50.892;7.082;2023-06-01T16:38:39;22.90;99.90
3156;DHT22;1588;50.892;7.082;2023-06-01T16:43:41;22.50;99.90
3156;DHT22;1588;50.892;7.082;2023-06-01T16:48:46;22.40;99.90
3156;DHT22;1588;50.892;7.082;2023-06-01T16:53:49;22.20;99.90
3156;DHT22;1588;50.892;7.082;2023-06-01T16:58:52;22.20;99.90
3156;DHT22;1588;50.892;7.082;2023-06-01T17:03:55;22.10;99.90
3156;DHT22;1588;50.892;7.082;2023-06-01T17:08:58;21.80;99.90
3156;DHT22;1588;50.892;7.082;2023-06-01T17:14:01;21.50;99.90
3156;DHT22;1588;50.892;7.082;2023-06-01T17:19:05;21.50;99.90
3156;DHT22;1588;50.892;7.082;2023-06-01T17:24:07;21.30;99.90
3156;DHT22;1588;50.892;7.082;2023-06-01T17:29:09;20.90;99.90
3156;DHT22;1588;50.892;7.082;2023-06-01T17:34:14;20.80;99.90
3156;DHT22;1588;50.892;7.082;2023-06-01T17:39:16;20.80;99.90
3156;DHT22;1588;50.892;7.082;2023-06-01T17:44:22;21.00;99.90
3156;DHT22;1588;50.892;7.082;2023-06-01T17:49:27;20.80;99.90
3156;DHT22;1588;50.892;7.082;2023-06-01T17:54:29;20.80;99.90
3156;DHT22;1588;50.892;7.082;2023-06-01T17:59:31;20.70;99.90
3156;DHT22;1588;50.892;7.082;2023-06-01T18:04:35;20.60;99.90
3156;DHT22;1588;50.892;7.082;2023-06-01T18:09:37;20.40;99.90
3156;DHT22;1588;50.892;7.082;2023-06-01T18:14:39;20.20;99.90
3156;DHT22;1588;50.892;7.082;2023-06-01T18:19:43;20.10;99.90
3156;DHT22;1588;50.892;7.082;2023-06-01T18:24:45;20.00;99.90
3156;DHT22;1588;50.892;7.082;2023-06-01T18:29:47;19.80;99.90
3156;DHT22;1588;50.892;7.082;2023-06-01T18:34:51;19.60;99.90
3156;DHT22;1588;50.892;7.082;2023-06-01T18:39:53;19.50;99.90
3156;DHT22;1588;50.892;7.082;2023-06-01T18:44:55;19.40;99.90
3156;DHT22;1588;50.892;7.082;2023-06-01T18:49:59;19.20;99.90
3156;DHT22;1588;50.892;7.082;2023-06-01T18:55:01;19.20;99.90
3156;DHT22;1588;50.892;7.082;2023-06-01T19:00:04;19.00;99.90
3156;DHT22;1588;50.892;7.082;2023-06-01T19:05:09;18.90;99.90
3156;DHT22;1588;50.892;7.082;2023-06-01T19:10:12;18.70;99.90
3156;DHT22;1588;50.892;7.082;2023-06-01T19:15:14;18.60;99.90
3156;DHT22;1588;50.892;7.082;2023-06-01T19:20:54;18.50;99.90
3156;DHT22;1588;50.892;7.082;2023-06-01T19:26:05;18.40;99.90
3156;DHT22;1588;50.892;7.082;2023-06-01T19:31:08;18.20;99.90
3156;DHT22;1588;50.892;7.082;2023-06-01T19:36:48;18.00;99.90
3156;DHT22;1588;50.892;7.082;2023-06-01T19:41:51;17.80;99.90
3156;DHT22;1588;50.892;7.082;2023-06-01T19:46:53;17.60;99.90
3156;DHT22;1588;50.892;7.082;2023-06-01T19:51:57;17.50;99.90
3156;DHT22;1588;50.892;7.082;2023-06-01T19:57:01;17.40;99.90
3156;DHT22;1588;50.892;7.082;2023-06-01T20:02:04;17.40;99.90
3156;DHT22;1588;50.892;7.082;2023-06-01T20:07:20;17.30;99.90
3156;DHT22;1588;50.892;7.082;2023-06-01T20:12:23;17.10;99.90
3156;DHT22;1588;50.892;7.082;2023-06-01T20:17:27;17.00;99.90
3156;DHT22;1588;50.892;7.082;2023-06-01T20:22:30;16.90;99.90
3156;DHT22;1588;50.892;7.082;2023-06-01T20:27:32;16.80;99.90
3156;DHT22;1588;50.892;7.082;2023-06-01T20:32:35;16.60;99.90
3156;DHT22;1588;50.892;7.082;2023-06-01T20:37:39;16.50;99.90
3156;DHT22;1588;50.892;7.082;2023-06-01T20:42:41;16.30;99.90
3156;DHT22;1588;50.892;7.082;2023-06-01T20:47:43;16.20;99.90
3156;DHT22;1588;50.892;7.082;2023-06-01T20:52:47;16.10;99.90
3156;DHT22;1588;50.892;7.082;2023-06-01T20:57:50;15.90;99.90
3156;DHT22;1588;50.892;7.082;2023-06-01T21:02:53;15.70;99.90
3156;DHT22;1588;50.892;7.082;2023-06-01T21:07:56;15.50;99.90
3156;DHT22;1588;50.892;7.082;2023-06-01T21:12:59;15.30;99.90
3156;DHT22;1588;50.892;7.082;2023-06-01T21:18:01;15.30;99.90
3156;DHT22;1588;50.892;7.082;2023-06-01T21:23:04;15.20;99.90
3156;DHT22;1588;50.892;7.082;2023-06-01T21:28:07;15.10;99.90
3156;DHT22;1588;50.892;7.082;2023-06-01T21:33:09;15.00;99.90
3156;DHT22;1588;50.892;7.082;2023-06-01T21:38:13;15.00;99.90
3156;DHT22;1588;50.892;7.082;2023-06-01T21:43:17;14.90;99.90
3156;DHT22;1588;50.892;7.082;2023-06-01T21:48:21;14.80;99.90
3156;DHT22;1588;50.892;7.082;2023-06-01T21:53:25;14.70;99.90
3156;DHT22;1588;50.892;7.082;2023-06-01T21:58:27;14.60;99.90
3156;DHT22;1588;50.892;7.082;2023-06-01T22:03:31;14.60;99.90
3156;DHT22;1588;50.892;7.082;2023-06-01T22:08:35;14.50;99.90
3156;DHT22;1588;50.892;7.082;2023-06-01T22:13:37;14.40;99.90
3156;DHT22;1588;50.892;7.082;2023-06-01T22:18:40;14.30;99.90
3156;DHT22;1588;50.892;7.082;2023-06-01T22:23:46;14.20;99.90
3156;DHT22;1588;50.892;7.082;2023-06-01T22:28:48;14.10;99.90
3156;DHT22;1588;50.892;7.082;2023-06-01T22:33:51;14.00;99.90
3156;DHT22;1588;50.892;7.082;2023-06-01T22:38:54;13.90;99.90
3156;DHT22;1588;50.892;7.082;2023-06-01T22:43:56;13.70;99.90
3156;DHT22;1588;50.892;7.082;2023-06-01T22:48:59;13.70;99.90
3156;DHT22;1588;50.892;7.082;2023-06-01T22:54:05;13.70;99.90
3156;DHT22;1588;50.892;7.082;2023-06-01T22:59:07;13.60;99.90
3156;DHT22;1588;50.892;7.082;2023-06-01T23:04:09;13.70;99.90
3156;DHT22;1588;50.892;7.082;2023-06-01T23:09:13;13.70;99.90
3156;DHT22;1588;50.892;7.082;2023-06-01T23:14:18;13.70;99.90
3156;DHT22;1588;50.892;7.082;2023-06-01T23:19:27;13.70;99.90
3156;DHT22;1588;50.892;7.082;2023-06-01T23:24:34;13.80;99.90
3156;DHT22;1588;50.892;7.082;2023-06-01T23:29:36;13.60;99.90
3156;DHT22;1588;50.892;7.082;2023-06-01T23:34:38;13.60;99.90
3156;DHT22;1588;50.892;7.082;2023-06-01T23:39:42;13.60;99.90
3156;DHT22;1588;50.892;7.082;2023-06-01T23:44:44;13.60;99.90
3156;DHT22;1588;50.892;7.082;2023-06-01T23:49:47;13.60;99.90
3156;DHT22;1588;50.892;7.082;2023-06-01T23:54:50;13.60;99.90
3156;DHT22;1588;50.892;7.082;2023-06-01T23:59:53;13.60;99.90
